sensor_id;sensor_type;location;lat;lon;timestamp;pressure;altitude;pressure_sealevel;temperature;humidity
34185;BME280;20454;48.100;11.776;2023-04-06T00:01:37;95637.44;;;-0.72;76.65
34185;BME280;20454;48.100;11.776;2023-04-06T00:04:03;95634.38;;;-0.75;76.50
34185;BME280;20454;48.100;11.776;2023-04-06T00:06:29;95633.56;;;-0.76;76.98
34185;BME280;20454;48.100;11.776;2023-04-06T00:08:55;95636.19;;;-0.81;76.81
34185;BME280;20454;48.100;11.776;2023-04-06T00:11:21;95630.75;;;-0.81;76.94
34185;BME280;20454;48.100;11.776;2023-04-06T00:13:47;95630.50;;;-0.79;76.92
34185;BME280;20454;48.100;11.776;2023-04-06T00:16:13;95635.34;;;-0.81;77.44
34185;BME280;20454;48.100;11.776;2023-04-06T00:18:39;95628.75;;;-0.85;77.24
34185;BME280;20454;48.100;11.776;2023-04-06T00:21:04;95635.03;;;-0.85;77.68
34185;BME280;20454;48.100;11.776;2023-04-06T00:23:30;95638.59;;;-0.84;77.54
34185;BME280;20454;48.100;11.776;2023-04-06T00:25:56;95636.63;;;-0.89;77.74
34185;BME280;20454;48.100;11.776;2023-04-06T00:28:21;95632.22;;;-0.90;77.63
34185;BME280;20454;48.100;11.776;2023-04-06T00:30:53;95625.59;;;-0.94;77.98
34185;BME280;20454;48.100;11.776;2023-04-06T00:33:21;95628.81;;;-0.97;78.55
34185;BME280;20454;48.100;11.776;2023-04-06T00:35:47;95636.53;;;-0.94;78.86
34185;BME280;20454;48.100;11.776;2023-04-06T00:38:13;95623.88;;;-1.00;78.42
34185;BME280;20454;48.100;11.776;2023-04-06T00:40:39;95630.41;;;-1.01;78.71
34185;BME280;20454;48.100;11.776;2023-04-06T00:43:05;95618.31;;;-1.05;78.51
34185;BME280;20454;48.100;11.776;2023-04-06T00:45:32;95627.34;;;-1.04;78.59
34185;BME280;20454;48.100;11.776;2023-04-06T00:47:58;95627.34;;;-1.04;78.90
34185;BME280;20454;48.100;11.776;2023-04-06T00:50:24;95624.84;;;-1.06;79.03
34185;BME280;20454;48.100;11.776;2023-04-06T00:52:50;95622.97;;;-1.05;79.16
34185;BME280;20454;48.100;11.776;2023-04-06T00:55:17;95627.00;;;-1.08;79.47
34185;BME280;20454;48.100;11.776;2023-04-06T00:57:42;95624.28;;;-1.08;79.25
34185;BME280;20454;48.100;11.776;2023-04-06T01:00:08;95628.91;;;-1.08;78.86
34185;BME280;20454;48.100;11.776;2023-04-06T01:02:35;95618.72;;;-1.13;79.39
34185;BME280;20454;48.100;11.776;2023-04-06T01:05:01;95624.19;;;-1.13;79.79
34185;BME280;20454;48.100;11.776;2023-04-06T01:07:27;95630.16;;;-1.16;79.73
34185;BME280;20454;48.100;11.776;2023-04-06T01:09:53;95630.38;;;-1.17;79.62
34185;BME280;20454;48.100;11.776;2023-04-06T01:12:19;95634.19;;;-1.18;79.80
34185;BME280;20454;48.100;11.776;2023-04-06T01:14:45;95627.31;;;-1.21;80.31
34185;BME280;20454;48.100;11.776;2023-04-06T01:17:11;95627.56;;;-1.22;80.16
34185;BME280;20454;48.100;11.776;2023-04-06T01:19:37;95616.31;;;-1.26;79.90
34185;BME280;20454;48.100;11.776;2023-04-06T01:22:02;95627.00;;;-1.24;79.97
34185;BME280;20454;48.100;11.776;2023-04-06T01:24:28;95632.44;;;-1.24;79.87
34185;BME280;20454;48.100;11.776;2023-04-06T01:26:54;95625.81;;;-1.28;79.85
34185;BME280;20454;48.100;11.776;2023-04-06T01:29:20;95623.94;;;-1.28;80.17
34185;BME280;20454;48.100;11.776;2023-04-06T01:31:45;95620.34;;;-1.28;80.10
34185;BME280;20454;48.100;11.776;2023-04-06T01:34:11;95614.34;;;-1.30;80.68
34185;BME280;20454;48.100;11.776;2023-04-06T01:36:37;95623.59;;;-1.31;80.77
34185;BME280;20454;48.100;11.776;2023-04-06T01:39:02;95621.59;;;-1.36;81.29
34185;BME280;20454;48.100;11.776;2023-04-06T01:41:28;95624.56;;;-1.37;80.96
34185;BME280;20454;48.100;11.776;2023-04-06T01:43:54;95611.91;;;-1.43;80.81
34185;BME280;20454;48.100;11.776;2023-04-06T01:46:20;95619.84;;;-1.42;81.12
34185;BME280;20454;48.100;11.776;2023-04-06T01:48:46;95619.84;;;-1.42;81.22
34185;BME280;20454;48.100;11.776;2023-04-06T01:51:11;95607.19;;;-1.48;81.37
34185;BME280;20454;48.100;11.776;2023-04-06T01:53:37;95609.13;;;-1.48;81.19
34185;BME280;20454;48.100;11.776;2023-04-06T01:56:03;95614.91;;;-1.45;81.55
34185;BME280;20454;48.100;11.776;2023-04-06T01:58:28;95607.78;;;-1.46;81.34
34185;BME280;20454;48.100;11.776;2023-04-06T04:01:28;95619.72;;;-1.91;84.77
34185;BME280;20454;48.100;11.776;2023-04-06T04:03:53;95617.50;;;-1.94;84.88
34185;BME280;20454;48.100;11.776;2023-04-06T04:06:19;95617.50;;;-1.94;84.92
34185;BME280;20454;48.100;11.776;2023-04-06T04:08:45;95620.22;;;-1.94;84.65
34185;BME280;20454;48.100;11.776;2023-04-06T04:11:10;95612.78;;;-1.99;85.18
34185;BME280;20454;48.100;11.776;2023-04-06T04:13:36;95616.56;;;-2.00;85.17
34185;BME280;20454;48.100;11.776;2023-04-06T04:16:02;95612.66;;;-2.04;85.51
34185;BME280;20454;48.100;11.776;2023-04-06T04:18:27;95626.97;;;-1.97;85.34
34185;BME280;20454;48.100;11.776;2023-04-06T04:20:53;95624.47;;;-1.98;85.80
34185;BME280;20454;48.100;11.776;2023-04-06T04:23:19;95624.13;;;-2.02;85.62
34185;BME280;20454;48.100;11.776;2023-04-06T04:25:44;95634.47;;;-2.04;85.79
34185;BME280;20454;48.100;11.776;2023-04-06T04:28:10;95634.47;;;-2.04;85.39
34185;BME280;20454;48.100;11.776;2023-04-06T04:30:36;95641.91;;;-1.99;85.56
34185;BME280;20454;48.100;11.776;2023-04-06T04:33:01;95646.06;;;-1.97;85.39
34185;BME280;20454;48.100;11.776;2023-04-06T04:35:27;95642.47;;;-1.97;85.37
34185;BME280;20454;48.100;11.776;2023-04-06T04:37:53;95638.94;;;-1.98;85.40
34185;BME280;20454;48.100;11.776;2023-04-06T04:40:18;95634.91;;;-1.95;84.99
34185;BME280;20454;48.100;11.776;2023-04-06T04:42:44;95642.59;;;-1.92;84.80
34185;BME280;20454;48.100;11.776;2023-04-06T05:26:38;95639.81;;;-1.53;85.03
34185;BME280;20454;48.100;11.776;2023-04-06T05:29:04;95631.63;;;-1.53;85.06
34185;BME280;20454;48.100;11.776;2023-04-06T05:31:29;95646.56;;;-1.44;84.90
34185;BME280;20454;48.100;11.776;2023-04-06T05:33:56;95646.91;;;-1.40;85.20
34185;BME280;20454;48.100;11.776;2023-04-06T05:36:22;95644.56;;;-1.32;85.04
34185;BME280;20454;48.100;11.776;2023-04-06T05:38:47;95646.59;;;-1.27;84.58
34185;BME280;20454;48.100;11.776;2023-04-06T05:41:13;95652.47;;;-1.19;84.29
34185;BME280;20454;48.100;11.776;2023-04-06T05:43:39;95646.59;;;-1.11;84.61
34185;BME280;20454;48.100;11.776;2023-04-06T06:01:38;95609.03;;;-0.71;81.70
34185;BME280;20454;48.100;11.776;2023-04-06T06:04:03;95649.06;;;-0.43;81.07
34185;BME280;20454;48.100;11.776;2023-04-06T06:06:29;95637.41;;;-0.39;81.25
34185;BME280;20454;48.100;11.776;2023-04-06T06:08:58;95632.00;;;-0.34;81.26
34185;BME280;20454;48.100;11.776;2023-04-06T06:11:27;95648.03;;;-0.21;80.83
34185;BME280;20454;48.100;11.776;2023-04-06T06:13:53;95647.34;;;-0.12;80.57
34185;BME280;20454;48.100;11.776;2023-04-06T06:16:19;95646.91;;;-0.04;79.55
34185;BME280;20454;48.100;11.776;2023-04-06T06:18:45;95643.47;;;0.06;79.20
34185;BME280;20454;48.100;11.776;2023-04-06T06:21:11;95644.94;;;0.13;78.92
34185;BME280;20454;48.100;11.776;2023-04-06T06:23:41;95644.25;;;0.23;78.39
34185;BME280;20454;48.100;11.776;2023-04-06T06:26:07;95636.91;;;0.28;78.35
34185;BME280;20454;48.100;11.776;2023-04-06T06:28:33;95647.22;;;0.43;77.33
34185;BME280;20454;48.100;11.776;2023-04-06T06:30:58;95644.59;;;0.53;76.46
34185;BME280;20454;48.100;11.776;2023-04-06T06:33:24;95648.59;;;0.67;76.58
34185;BME280;20454;48.100;11.776;2023-04-06T06:35:51;95652.00;;;0.79;75.70
34185;BME280;20454;48.100;11.776;2023-04-06T06:38:17;95645.25;;;0.86;75.19
34185;BME280;20454;48.100;11.776;2023-04-06T06:40:45;95659.09;;;1.01;74.64
34185;BME280;20454;48.100;11.776;2023-04-06T06:43:11;95660.56;;;1.14;73.90
34185;BME280;20454;48.100;11.776;2023-04-06T06:45:37;95656.56;;;1.26;73.62
34185;BME280;20454;48.100;11.776;2023-04-06T06:48:02;95661.59;;;1.39;73.53
34185;BME280;20454;48.100;11.776;2023-04-06T06:50:28;95649.91;;;1.49;73.01
34185;BME280;20454;48.100;11.776;2023-04-06T06:52:54;95650.56;;;1.66;72.43
34185;BME280;20454;48.100;11.776;2023-04-06T06:55:20;95646.84;;;1.82;71.83
34185;BME280;20454;48.100;11.776;2023-04-06T06:57:45;95650.78;;;1.96;71.13
34185;BME280;20454;48.100;11.776;2023-04-06T16:02:37;95367.13;;;11.96;33.54
34185;BME280;20454;48.100;11.776;2023-04-06T16:05:03;95385.03;;;11.95;34.11
34185;BME280;20454;48.100;11.776;2023-04-06T16:07:30;95380.78;;;11.89;34.89
34185;BME280;20454;48.100;11.776;2023-04-06T16:09:56;95376.69;;;11.87;34.13
34185;BME280;20454;48.100;11.776;2023-04-06T16:12:22;95380.16;;;11.84;35.02
34185;BME280;20454;48.100;11.776;2023-04-06T16:14:48;95381.78;;;11.85;34.79
34185;BME280;20454;48.100;11.776;2023-04-06T16:17:14;95379.63;;;11.82;34.84
34185;BME280;20454;48.100;11.776;2023-04-06T16:19:41;95375.22;;;11.81;34.99
34185;BME280;20454;48.100;11.776;2023-04-06T16:22:06;95376.84;;;11.82;35.55
34185;BME280;20454;48.100;11.776;2023-04-06T16:24:32;95393.09;;;11.80;35.19
34185;BME280;20454;48.100;11.776;2023-04-06T16:26:58;95389.34;;;11.76;35.62
34185;BME280;20454;48.100;11.776;2023-04-06T16:29:24;95391.63;;;11.74;35.89
34185;BME280;20454;48.100;11.776;2023-04-06T16:31:51;95389.53;;;11.71;35.63
34185;BME280;20454;48.100;11.776;2023-04-06T16:34:17;95402.31;;;11.72;35.69
34185;BME280;20454;48.100;11.776;2023-04-06T16:36:43;95390.19;;;11.68;35.46
34185;BME280;20454;48.100;11.776;2023-04-06T16:39:08;95389.69;;;11.66;36.98
34185;BME280;20454;48.100;11.776;2023-04-06T16:41:34;95395.91;;;11.71;36.74
34185;BME280;20454;48.100;11.776;2023-04-06T16:44:01;95394.28;;;11.70;36.73
34185;BME280;20454;48.100;11.776;2023-04-06T16:46:30;95389.22;;;11.64;36.59
34185;BME280;20454;48.100;11.776;2023-04-06T16:48:57;95390.69;;;11.53;36.26
34185;BME280;20454;48.100;11.776;2023-04-06T16:51:22;95390.88;;;11.39;36.81
34185;BME280;20454;48.100;11.776;2023-04-06T16:53:48;95394.66;;;11.26;37.26
34185;BME280;20454;48.100;11.776;2023-04-06T16:56:13;95395.16;;;11.11;37.29
34185;BME280;20454;48.100;11.776;2023-04-06T16:58:39;95389.25;;;10.96;38.03
34185;BME280;20454;48.100;11.776;2023-04-06T17:01:05;95397.63;;;10.79;37.94
34185;BME280;20454;48.100;11.776;2023-04-06T17:03:32;95394.47;;;10.63;38.73
34185;BME280;20454;48.100;11.776;2023-04-06T17:05:58;95400.34;;;10.53;38.84
34185;BME280;20454;48.100;11.776;2023-04-06T17:08:24;95390.81;;;10.37;39.07
34185;BME280;20454;48.100;11.776;2023-04-06T17:10:49;95399.13;;;10.29;39.10
34185;BME280;20454;48.100;11.776;2023-04-06T17:13:15;95390.94;;;10.15;39.43
34185;BME280;20454;48.100;11.776;2023-04-06T17:15:41;95397.91;;;10.04;39.53
34185;BME280;20454;48.100;11.776;2023-04-06T17:18:08;95401.28;;;9.93;39.91
34185;BME280;20454;48.100;11.776;2023-04-06T17:20:34;95395.47;;;9.81;40.53
34185;BME280;20454;48.100;11.776;2023-04-06T17:23:01;95401.66;;;9.69;40.77
34185;BME280;20454;48.100;11.776;2023-04-06T17:25:27;95405.31;;;9.56;41.42
34185;BME280;20454;48.100;11.776;2023-04-06T17:27:53;95409.84;;;9.44;41.47
34185;BME280;20454;48.100;11.776;2023-04-06T17:30:19;95405.81;;;9.28;41.63
34185;BME280;20454;48.100;11.776;2023-04-06T17:32:44;95411.63;;;9.18;41.82
34185;BME280;20454;48.100;11.776;2023-04-06T19:57:41;95521.81;;;3.22;66.46
34185;BME280;20454;48.100;11.776;2023-04-06T20:00:07;95532.50;;;3.24;66.67
34185;BME280;20454;48.100;11.776;2023-04-06T20:02:33;95535.53;;;3.17;66.44
34185;BME280;20454;48.100;11.776;2023-04-06T20:04:59;95533.88;;;3.06;67.42
34185;BME280;20454;48.100;11.776;2023-04-06T20:07:25;95527.31;;;2.97;67.66
34185;BME280;20454;48.100;11.776;2023-04-06T20:09:50;95536.91;;;2.95;67.71
34185;BME280;20454;48.100;11.776;2023-04-06T20:12:16;95533.06;;;2.86;68.34
34185;BME280;20454;48.100;11.776;2023-04-06T20:14:42;95529.50;;;2.80;68.59
34185;BME280;20454;48.100;11.776;2023-04-06T20:17:07;95531.69;;;2.73;68.82
34185;BME280;20454;48.100;11.776;2023-04-06T20:19:33;95536.63;;;2.71;69.13
34185;BME280;20454;48.100;11.776;2023-04-06T20:21:59;95525.63;;;2.71;69.46
34185;BME280;20454;48.100;11.776;2023-04-06T20:24:28;95542.94;;;2.72;69.65
34185;BME280;20454;48.100;11.776;2023-04-06T20:26:53;95535.50;;;2.72;69.85
34185;BME280;20454;48.100;11.776;2023-04-06T20:29:19;95527.56;;;2.71;70.13
34185;BME280;20454;48.100;11.776;2023-04-06T20:31:44;95525.34;;;2.83;70.40
34185;BME280;20454;48.100;11.776;2023-04-06T20:34:11;95530.31;;;2.86;70.36
34185;BME280;20454;48.100;11.776;2023-04-06T20:36:36;95532.78;;;2.92;70.23
34185;BME280;20454;48.100;11.776;2023-04-06T20:39:02;95527.56;;;2.96;70.37
34185;BME280;20454;48.100;11.776;2023-04-06T20:41:28;95528.13;;;2.98;70.23
34185;BME280;20454;48.100;11.776;2023-04-06T20:43:53;95533.06;;;3.01;70.44
34185;BME280;20454;48.100;11.776;2023-04-06T20:46:19;95532.22;;;3.00;69.97
34185;BME280;20454;48.100;11.776;2023-04-06T20:48:45;95533.06;;;3.01;70.13
34185;BME280;20454;48.100;11.776;2023-04-06T20:51:19;95528.13;;;2.98;70.23
34185;BME280;20454;48.100;11.776;2023-04-06T20:53:45;95514.41;;;2.93;70.28
34185;BME280;20454;48.100;11.776;2023-04-06T20:56:11;95519.31;;;2.96;70.87
34185;BME280;20454;48.100;11.776;2023-04-06T20:58:37;95507.78;;;2.89;70.88
34185;BME280;20454;48.100;11.776;2023-04-06T21:01:03;95503.94;;;2.90;70.91
34185;BME280;20454;48.100;11.776;2023-04-06T21:03:28;95505.59;;;2.86;71.24
34185;BME280;20454;48.100;11.776;2023-04-06T21:05:55;95496.81;;;2.79;71.59
34185;BME280;20454;48.100;11.776;2023-04-06T21:08:25;95498.44;;;2.75;71.85
34185;BME280;20454;48.100;11.776;2023-04-06T21:10:50;95515.22;;;2.73;71.98
34185;BME280;20454;48.100;11.776;2023-04-06T21:13:16;95515.19;;;2.68;71.78
34185;BME280;20454;48.100;11.776;2023-04-06T21:15:41;95508.63;;;2.59;71.57
34185;BME280;20454;48.100;11.776;2023-04-06T21:18:08;95509.16;;;2.61;71.60
34185;BME280;20454;48.100;11.776;2023-04-06T21:20:34;95503.94;;;2.60;71.87
34185;BME280;20454;48.100;11.776;2023-04-06T21:23:00;95508.88;;;2.58;71.82
34185;BME280;20454;48.100;11.776;2023-04-06T21:25:25;95503.63;;;2.51;72.08
34185;BME280;20454;48.100;11.776;2023-04-06T21:27:51;95503.66;;;2.46;72.21
34185;BME280;20454;48.100;11.776;2023-04-06T21:30:16;95508.00;;;2.42;72.57
34185;BME280;20454;48.100;11.776;2023-04-06T21:32:42;95506.91;;;2.33;72.64
34185;BME280;20454;48.100;11.776;2023-04-06T21:35:08;95505.78;;;2.29;72.64
34185;BME280;20454;48.100;11.776;2023-04-06T21:37:34;95498.91;;;2.27;72.81
34185;BME280;20454;48.100;11.776;2023-04-06T21:40:00;95502.75;;;2.21;72.82
34185;BME280;20454;48.100;11.776;2023-04-06T21:42:27;95500.00;;;2.16;73.07
34185;BME280;20454;48.100;11.776;2023-04-06T21:44:52;95506.28;;;2.16;73.30
34185;BME280;20454;48.100;11.776;2023-04-06T21:47:18;95493.66;;;2.05;73.51
34185;BME280;20454;48.100;11.776;2023-04-06T21:49:44;95493.38;;;2.07;73.72
34185;BME280;20454;48.100;11.776;2023-04-06T21:52:09;95497.50;;;2.04;73.60
34185;BME280;20454;48.100;11.776;2023-04-06T21:54:35;95499.41;;;2.04;73.84
34185;BME280;20454;48.100;11.776;2023-04-06T21:57:01;95496.38;;;2.00;73.92
34185;BME280;20454;48.100;11.776;2023-04-06T21:59:27;95492.25;;;1.98;74.56
34185;BME280;20454;48.100;11.776;2023-04-06T22:01:53;95486.50;;;1.99;74.89
34185;BME280;20454;48.100;11.776;2023-04-06T22:04:19;95489.50;;;1.98;74.77
34185;BME280;20454;48.100;11.776;2023-04-06T22:06:44;95490.59;;;1.97;74.70
34185;BME280;20454;48.100;11.776;2023-04-06T22:09:10;95486.47;;;1.94;74.87
34185;BME280;20454;48.100;11.776;2023-04-06T22:11:37;95494.19;;;2.02;75.00
34185;BME280;20454;48.100;11.776;2023-04-06T22:14:03;95497.50;;;2.04;75.06
34185;BME280;20454;48.100;11.776;2023-04-06T22:16:29;95487.06;;;2.06;74.52
34185;BME280;20454;48.100;11.776;2023-04-06T22:18:55;95492.31;;;2.08;74.74
34185;BME280;20454;48.100;11.776;2023-04-06T22:21:20;95479.94;;;2.10;74.78
34185;BME280;20454;48.100;11.776;2023-04-06T22:23:46;95483.81;;;2.14;74.84
34185;BME280;20454;48.100;11.776;2023-04-06T22:26:12;95478.06;;;2.16;74.70
34185;BME280;20454;48.100;11.776;2023-04-06T22:28:37;95476.97;;;2.22;74.18
34185;BME280;20454;48.100;11.776;2023-04-06T22:31:03;95480.81;;;2.26;73.47
34185;BME280;20454;48.100;11.776;2023-04-06T22:33:29;95481.34;;;2.28;73.12
34185;BME280;20454;48.100;11.776;2023-04-06T22:35:55;95482.19;;;2.28;73.01
34185;BME280;20454;48.100;11.776;2023-04-06T22:38:20;95476.69;;;2.28;72.72
34185;BME280;20454;48.100;11.776;2023-04-06T22:40:46;95474.22;;;2.27;72.25
34185;BME280;20454;48.100;11.776;2023-04-06T22:43:12;95480.00;;;2.30;72.53
34185;BME280;20454;48.100;11.776;2023-04-06T22:45:37;95472.59;;;2.31;72.35
34185;BME280;20454;48.100;11.776;2023-04-06T22:48:03;95461.88;;;2.29;72.21
34185;BME280;20454;48.100;11.776;2023-04-06T22:50:28;95455.59;;;2.29;72.08
34185;BME280;20454;48.100;11.776;2023-04-06T22:52:54;95456.66;;;2.28;72.23
34185;BME280;20454;48.100;11.776;2023-04-06T22:55:20;95467.09;;;2.31;71.84
34185;BME280;20454;48.100;11.776;2023-04-06T22:57:46;95464.38;;;2.36;71.64
34185;BME280;20454;48.100;11.776;2023-04-06T23:00:12;95450.63;;;2.31;71.70
34185;BME280;20454;48.100;11.776;2023-04-06T23:02:37;95454.47;;;2.35;72.15
34185;BME280;20454;48.100;11.776;2023-04-06T23:05:03;95444.59;;;2.29;71.84
34185;BME280;20454;48.100;11.776;2023-04-06T23:07:29;95455.56;;;2.34;71.73
34185;BME280;20454;48.100;11.776;2023-04-06T23:09:57;95461.63;;;2.36;71.51
34185;BME280;20454;48.100;11.776;2023-04-06T23:12:23;95466.53;;;2.34;71.87
34185;BME280;20454;48.100;11.776;2023-04-06T23:14:49;95473.13;;;2.33;71.40
34185;BME280;20454;48.100;11.776;2023-04-06T23:17:14;95457.75;;;2.27;71.20
34185;BME280;20454;48.100;11.776;2023-04-06T23:19:40;95458.59;;;2.27;71.49
34185;BME280;20454;48.100;11.776;2023-04-06T23:22:06;95460.50;;;2.27;71.44
34185;BME280;20454;48.100;11.776;2023-04-06T23:24:31;95454.72;;;2.23;71.40
34185;BME280;20454;48.100;11.776;2023-04-06T23:26:57;95454.19;;;2.21;71.75
34185;BME280;20454;48.100;11.776;2023-04-06T23:29:23;95442.66;;;2.14;71.65
34185;BME280;20454;48.100;11.776;2023-04-06T23:31:48;95456.38;;;2.19;71.59
34185;BME280;20454;48.100;11.776;2023-04-06T23:34:14;95452.53;;;2.15;71.63
34185;BME280;20454;48.100;11.776;2023-04-06T23:36:40;95453.06;;;2.17;72.02
34185;BME280;20454;48.100;11.776;2023-04-06T23:39:05;95431.66;;;2.09;72.08
34185;BME280;20454;48.100;11.776;2023-04-06T23:41:31;95437.97;;;2.10;72.53
34185;BME280;20454;48.100;11.776;2023-04-06T23:43:57;95440.19;;;2.08;72.69
34185;BME280;20454;48.100;11.776;2023-04-06T23:46:22;95432.75;;;2.03;72.61
34185;BME280;20454;48.100;11.776;2023-04-06T23:48:48;95437.41;;;2.03;73.14
34185;BME280;20454;48.100;11.776;2023-04-06T23:51:14;95432.19;;;2.01;73.00
34185;BME280;20454;48.100;11.776;2023-04-06T23:53:39;95436.03;;;2.00;73.06
34185;BME280;20454;48.100;11.776;2023-04-06T23:56:06;95441.78;;;1.99;73.07
34185;BME280;20454;48.100;11.776;2023-04-06T23:58:31;95437.94;;;1.95;72.87
